Time;durP1;ratioP1;P1;durP2;ratioP2;P2;SDS_P1;SDS_P2;PMS_P1;PMS_P2;Temp;Humidity;BMP_temperature;BMP_pressure;BME280_temperature;BME280_humidity;BME280_pressure;Samples;Min_cycle;Max_cycle;Signal;HPM_P1;HPM_P2
2023/01/17 07:08:20;;;;;;;;;;;;;;;6.51;68.15;93966.69;4248417;27;10376;-66
2023/01/17 07:10:23;;;;;;;;;;;;;;;6.82;67.48;93960.94;4248610;27;6455;-67
2023/01/17 07:12:25;;;;;;;;;;;;;;;7.00;66.89;93955.41;4247443;27;5852;-67
2023/01/17 07:14:28;;;;;;;;;;;;;;;7.19;66.77;93944.66;4248195;27;5749;-67
2023/01/17 07:16:31;;;;;;;;;;;;;;;7.35;66.62;93938.56;4236703;27;5513;-67
2023/01/17 07:18:34;;;;;;;;;;;;;;;7.49;66.22;93939.84;4247170;27;6283;-67
2023/01/17 07:20:37;;;;;;;;;;;;;;;7.59;65.74;93929.44;4247944;27;5677;-67
2023/01/17 07:22:44;;;;;;;;;;;;;;;7.62;65.79;93919.47;4248259;27;5712;-67
2023/01/17 07:24:48;;;;;;;;;;;;;;;7.67;65.64;93911.66;4245292;27;5611;-67
2023/01/17 07:26:51;;;;;;;;;;;;;;;7.76;65.51;93912.81;4247755;27;5684;-67
2023/01/17 07:28:54;;;;;;;;;;;;;;;7.82;65.47;93899.47;4248126;27;6482;-67
2023/01/17 07:30:57;;;;;;;;;;;;;;;7.87;65.34;93914.50;4248820;27;5734;-68
2023/01/17 07:33:01;;;;;;;;;;;;;;;7.86;65.15;93926.06;4248679;27;6174;-66
2023/01/17 07:35:05;;;;;;;;;;;;;;;7.86;64.94;93926.06;4248819;27;5659;-67
2023/01/17 07:37:07;;;;;;;;;;;;;;;7.90;64.94;93935.06;4248476;27;5640;-66
2023/01/17 07:39:10;;;;;;;;;;;;;;;7.91;64.98;93920.06;4239758;27;5612;-67
2023/01/17 07:41:14;;;;;;;;;;;;;;;7.92;64.74;93925.06;4248587;27;5200;-67
2023/01/17 07:43:17;;;;;;;;;;;;;;;7.95;64.79;93927.25;4248227;27;7792;-67
2023/01/17 07:45:20;;;;;;;;;;;;;;;7.98;64.32;93924.09;4248721;27;5820;-67
2023/01/17 07:47:23;;;;;;;;;;;;;;;8.01;64.69;93925.44;4248211;27;5590;-67
2023/01/17 07:49:26;;;;;;;;;;;;;;;8.04;64.22;93928.41;4248216;27;5075;-67
2023/01/17 07:51:29;;;;;;;;;;;;;;;8.06;64.06;93930.78;4248452;27;5602;-67
2023/01/17 07:53:32;;;;;;;;;;;;;;;8.09;64.13;93935.53;4248660;27;5643;-67
2023/01/17 07:55:35;;;;;;;;;;;;;;;8.10;63.89;93934.50;4248282;27;6512;-68
2023/01/17 07:57:39;;;;;;;;;;;;;;;8.10;63.79;93934.50;4247929;27;5614;-68
2023/01/17 07:59:42;;;;;;;;;;;;;;;8.11;63.58;93931.63;4248671;27;6328;-68
2023/01/17 08:01:45;;;;;;;;;;;;;;;8.09;63.40;93938.16;4248415;27;5707;-67
2023/01/17 08:03:53;;;;;;;;;;;;;;;8.07;63.59;93929.72;4248532;27;5675;-66
2023/01/17 08:05:56;;;;;;;;;;;;;;;8.00;63.33;93929.91;4248224;27;5589;-67
2023/01/17 08:07:59;;;;;;;;;;;;;;;7.98;63.36;93932.00;4243864;27;6338;-66
2023/01/17 08:10:11;;;;;;;;;;;;;;;7.98;63.42;93937.25;4236911;28;5072;-66
2023/01/17 08:12:14;;;;;;;;;;;;;;;8.00;63.10;93935.16;4236908;28;7656;-67
2023/01/17 08:14:20;;;;;;;;;;;;;;;8.02;63.42;93938.34;4236175;28;5667;-67
2023/01/17 08:16:23;;;;;;;;;;;;;;;8.03;63.20;93937.31;4236457;28;5691;-67
2023/01/17 08:18:26;;;;;;;;;;;;;;;8.02;63.19;93927.81;4236550;27;5594;-67
2023/01/17 08:20:29;;;;;;;;;;;;;;;8.05;63.16;93934.44;4236407;28;5655;-67
2023/01/17 08:22:32;;;;;;;;;;;;;;;8.05;62.90;93937.09;4236256;28;5096;-67
2023/01/17 08:24:36;;;;;;;;;;;;;;;8.02;62.79;93933.09;4236492;28;7747;-67
2023/01/17 08:26:39;;;;;;;;;;;;;;;7.96;62.95;93930.66;4236055;27;5659;-66
2023/01/17 08:28:42;;;;;;;;;;;;;;;7.92;62.91;93925.06;4236364;27;5732;-66
2023/01/17 08:30:46;;;;;;;;;;;;;;;7.93;62.54;93923.25;4236403;28;5652;-67
2023/01/17 08:32:49;;;;;;;;;;;;;;;7.86;62.68;93916.34;4236416;28;5746;-66
2023/01/17 08:34:52;;;;;;;;;;;;;;;7.88;62.77;93913.47;4234028;28;5610;-67
2023/01/17 08:36:55;;;;;;;;;;;;;;;7.87;62.86;93919.78;4230029;28;5800;-67
2023/01/17 08:38:57;;;;;;;;;;;;;;;7.89;62.86;93902.69;4221154;27;5748;-67
2023/01/17 08:41:01;;;;;;;;;;;;;;;7.85;62.66;93917.38;4224658;27;5674;-67
2023/01/17 08:43:04;;;;;;;;;;;;;;;7.86;62.67;93908.47;4225417;28;5657;-66
2023/01/17 08:45:08;;;;;;;;;;;;;;;7.91;62.62;93909.53;4235711;28;5084;-66
2023/01/17 08:47:13;;;;;;;;;;;;;;;7.92;62.57;93904.03;4235686;27;8396;-67
2023/01/17 08:49:15;;;;;;;;;;;;;;;7.91;62.42;93899.81;4225082;28;5601;-67
2023/01/17 08:51:18;;;;;;;;;;;;;;;7.94;62.15;93901.97;4232658;27;5750;-67
2023/01/17 08:53:22;;;;;;;;;;;;;;;7.97;62.24;93900.69;4234615;28;5754;-67
2023/01/17 08:55:25;;;;;;;;;;;;;;;7.98;62.14;93904.91;4228124;28;5831;-68
2023/01/17 08:57:28;;;;;;;;;;;;;;;7.94;62.08;93904.59;4233128;28;5656;-67
2023/01/17 08:59:31;;;;;;;;;;;;;;;7.91;61.79;93904.28;4234619;28;5594;-67
2023/01/17 09:01:40;;;;;;;;;;;;;;;7.86;61.87;93894.50;4235468;28;5836;-67
2023/01/17 09:03:45;;;;;;;;;;;;;;;7.78;62.04;93890.47;4231145;28;5681;-67
2023/01/17 09:05:48;;;;;;;;;;;;;;;7.77;62.11;93894.16;4231708;28;5818;-67
2023/01/17 09:07:51;;;;;;;;;;;;;;;7.77;62.11;93894.16;4234145;27;5685;-67
2023/01/17 09:09:54;;;;;;;;;;;;;;;7.80;61.87;93895.47;4232142;28;5700;-67
2023/01/17 09:11:57;;;;;;;;;;;;;;;7.80;61.86;93882.34;4228172;28;5665;-67
2023/01/17 09:14:00;;;;;;;;;;;;;;;7.83;61.92;93871.34;4224446;28;5840;-67
2023/01/17 09:16:04;;;;;;;;;;;;;;;7.85;61.67;93864.78;4235074;28;5606;-67
2023/01/17 09:18:07;;;;;;;;;;;;;;;7.88;61.93;93859.03;4234372;28;5617;-67
2023/01/17 09:20:12;;;;;;;;;;;;;;;7.84;61.85;93857.94;4228391;28;5638;-67
2023/01/17 09:22:15;;;;;;;;;;;;;;;7.83;61.99;93858.19;4226814;28;5703;-67
2023/01/17 09:24:18;;;;;;;;;;;;;;;7.83;61.81;93864.25;4227129;28;5606;-67
2023/01/17 09:26:24;;;;;;;;;;;;;;;7.86;61.75;93865.59;4235061;28;5606;-67
2023/01/17 09:28:28;;;;;;;;;;;;;;;7.87;61.80;93867.16;4223791;28;5658;-68
2023/01/17 09:30:30;;;;;;;;;;;;;;;7.91;61.52;93864.84;4232847;28;5717;-67
2023/01/17 09:32:33;;;;;;;;;;;;;;;7.95;61.94;93858.06;4231906;28;5079;-67
2023/01/17 09:34:37;;;;;;;;;;;;;;;7.92;61.37;93861.94;4228594;28;6302;-66
2023/01/17 09:36:41;;;;;;;;;;;;;;;7.84;61.54;93862.41;4234788;28;5609;-68
2023/01/17 09:38:45;;;;;;;;;;;;;;;7.81;61.61;93868.16;4232184;28;5758;-67
2023/01/17 09:40:48;;;;;;;;;;;;;;;7.86;61.62;93870.84;4232471;28;5824;-65
2023/01/17 09:42:56;;;;;;;;;;;;;;;7.88;61.56;93860.88;4231267;28;5807;-66
2023/01/17 09:44:59;;;;;;;;;;;;;;;7.93;61.50;93865.38;4233343;28;5675;-66
2023/01/17 09:47:11;;;;;;;;;;;;;;;7.95;61.62;93850.16;4233130;28;5792;-67
2023/01/17 09:49:26;;;;;;;;;;;;;;;7.97;61.39;93855.97;4228508;28;5768;-66
2023/01/17 09:51:29;;;;;;;;;;;;;;;8.03;61.41;93847.06;4228227;28;6298;-67
2023/01/17 09:53:36;;;;;;;;;;;;;;;8.00;61.41;93834.41;4227231;28;5137;-66
2023/01/17 09:55:43;;;;;;;;;;;;;;;7.99;61.48;93844.16;4228017;28;8120;-67
2023/01/17 09:57:58;;;;;;;;;;;;;;;7.97;61.52;93843.59;4234021;28;5728;-66
2023/01/17 10:00:11;;;;;;;;;;;;;;;7.94;61.14;93833.59;4234731;28;5648;-66
2023/01/17 10:02:40;;;;;;;;;;;;;;;7.90;61.31;93821.94;4234770;28;5626;-67
2023/01/17 10:05:02;;;;;;;;;;;;;;;7.80;61.09;93820.00;4230312;28;5635;-67
2023/01/17 10:07:17;;;;;;;;;;;;;;;7.72;61.28;93811.78;4233512;27;6469;-66
2023/01/17 10:09:44;;;;;;;;;;;;;;;7.69;60.94;93812.28;4229081;28;6303;-67
2023/01/17 10:12:01;;;;;;;;;;;;;;;7.58;61.19;93806.91;4230264;28;5750;-66
2023/01/17 10:14:24;;;;;;;;;;;;;;;7.55;61.24;93812.66;4225696;27;5096;-66
2023/01/17 10:16:37;;;;;;;;;;;;;;;7.54;61.26;93805.03;4233415;28;7655;-66
2023/01/17 10:19:11;;;;;;;;;;;;;;;7.58;61.51;93804.28;4233736;28;5696;-66
2023/01/17 10:21:21;;;;;;;;;;;;;;;7.68;61.29;93794.91;4234302;28;6296;-67
2023/01/17 10:23:43;;;;;;;;;;;;;;;7.70;60.96;93798.91;4227080;28;5602;-67
2023/01/17 10:25:49;;;;;;;;;;;;;;;7.63;60.67;93792.25;4216013;28;5616;-67
2023/01/17 10:27:57;;;;;;;;;;;;;;;7.57;61.11;93784.28;4233548;28;5710;-65
2023/01/17 10:30:03;;;;;;;;;;;;;;;7.55;60.90;93786.38;4233869;28;5847;-66
2023/01/17 10:32:10;;;;;;;;;;;;;;;7.54;61.09;93790.03;4233600;28;5684;-66
2023/01/17 10:34:17;;;;;;;;;;;;;;;7.63;61.10;93798.28;4234122;28;5610;-66
2023/01/17 10:36:22;;;;;;;;;;;;;;;7.69;60.94;93788.59;4232376;28;5629;-67
2023/01/17 10:38:30;;;;;;;;;;;;;;;7.76;61.04;93781.31;4231154;28;5620;-66
2023/01/17 10:40:40;;;;;;;;;;;;;;;7.79;61.06;93789.50;4222571;28;5521;-67
2023/01/17 10:42:51;;;;;;;;;;;;;;;7.81;61.07;93783.97;4222578;28;5593;-66
2023/01/17 10:45:04;;;;;;;;;;;;;;;7.86;61.02;93781.41;4223237;28;5809;-67
2023/01/17 10:47:18;;;;;;;;;;;;;;;7.90;60.93;93777.25;4233903;28;5731;-67
2023/01/17 10:49:23;;;;;;;;;;;;;;;7.92;60.98;93777.78;4225035;28;5749;-67
2023/01/17 10:51:42;;;;;;;;;;;;;;;7.93;60.67;93784.66;4226159;28;5617;-67
2023/01/17 10:54:02;;;;;;;;;;;;;;;7.96;60.81;93775.47;4232655;28;5647;-67
2023/01/17 10:56:06;;;;;;;;;;;;;;;7.89;60.77;93773.81;4233903;28;5103;-68
2023/01/17 10:58:12;;;;;;;;;;;;;;;7.89;60.87;93762.50;4221310;28;7683;-68
2023/01/17 11:00:28;;;;;;;;;;;;;;;7.94;60.91;93765.19;4217205;28;5669;-66
2023/01/17 11:02:38;;;;;;;;;;;;;;;7.96;60.68;93770.19;4228981;27;5669;-67
2023/01/17 11:04:43;;;;;;;;;;;;;;;7.91;60.72;93772.78;4233313;28;5613;-67
2023/01/17 11:07:10;;;;;;;;;;;;;;;7.92;61.09;93767.25;4233589;28;5640;-66
2023/01/17 11:09:14;;;;;;;;;;;;;;;7.97;60.83;93767.31;4231775;28;5622;-66
2023/01/17 11:11:18;;;;;;;;;;;;;;;8.00;60.87;93766.00;4217052;28;5836;-66
2023/01/17 11:13:28;;;;;;;;;;;;;;;7.99;60.91;93765.22;4225703;28;5602;-67
2023/01/17 11:15:33;;;;;;;;;;;;;;;7.98;60.63;93765.47;4231817;28;5651;-67
2023/01/17 11:17:37;;;;;;;;;;;;;;;7.92;60.61;93763.84;4230574;28;5758;-66
2023/01/17 11:19:44;;;;;;;;;;;;;;;7.85;60.79;93766.69;4226302;28;5610;-66
2023/01/17 11:21:52;;;;;;;;;;;;;;;7.82;60.78;93759.31;4233703;28;5614;-66
2023/01/17 11:23:56;;;;;;;;;;;;;;;7.87;60.71;93761.97;4228383;28;5820;-66
2023/01/17 11:26:02;;;;;;;;;;;;;;;7.88;60.81;93755.66;4231211;28;5598;-67
2023/01/17 11:28:07;;;;;;;;;;;;;;;7.93;61.06;93747.81;4233264;28;5731;-67
2023/01/17 11:30:17;;;;;;;;;;;;;;;7.94;60.84;93757.31;4233103;28;5793;-67
2023/01/17 11:32:31;;;;;;;;;;;;;;;7.93;60.54;93760.97;4225380;28;5708;-68
2023/01/17 11:34:34;;;;;;;;;;;;;;;7.94;60.76;93756.50;4233017;28;5609;-67
2023/01/17 11:36:37;;;;;;;;;;;;;;;7.95;60.78;93758.09;4225447;27;5602;-67
2023/01/17 11:38:40;;;;;;;;;;;;;;;7.88;60.57;93753.81;4233056;28;5609;-67
2023/01/17 11:40:44;;;;;;;;;;;;;;;7.86;60.65;93758.53;4230416;28;5673;-67
2023/01/17 11:42:59;;;;;;;;;;;;;;;7.84;60.44;93767.72;4230821;28;5771;-67
2023/01/17 11:45:24;;;;;;;;;;;;;;;7.83;60.68;93760.88;4223969;28;5610;-67
2023/01/17 11:47:27;;;;;;;;;;;;;;;7.81;60.67;93768.22;4219291;28;5685;-67
2023/01/17 11:49:30;;;;;;;;;;;;;;;7.82;60.47;93759.31;4220280;28;5801;-67
2023/01/17 11:51:40;;;;;;;;;;;;;;;7.80;60.50;93751.63;4233708;28;5622;-67
2023/01/17 11:53:46;;;;;;;;;;;;;;;7.79;60.49;93754.53;4237018;27;5605;-67
2023/01/17 11:56:04;;;;;;;;;;;;;;;7.76;60.47;93757.66;4234780;28;5866;-68
2023/01/17 11:58:14;;;;;;;;;;;;;;;7.75;60.69;93759.50;4234226;28;5694;-66
2023/01/17 12:00:22;;;;;;;;;;;;;;;7.77;60.60;93764.50;4228938;28;5610;-66
2023/01/17 12:03:04;;;;;;;;;;;;;;;7.77;60.65;93770.56;4233438;28;5718;-67
2023/01/17 12:05:27;;;;;;;;;;;;;;;7.75;60.40;93774.47;4236604;28;5597;-67
2023/01/17 12:07:42;;;;;;;;;;;;;;;7.75;60.27;93774.47;4229785;28;5825;-67
2023/01/17 12:09:56;;;;;;;;;;;;;;;7.72;60.25;93777.63;4230198;28;5908;-67
2023/01/17 12:14:43;;;;;;;;;;;;;;;7.63;59.99;93776.47;4236093;28;5682;-66
2023/01/17 12:17:00;;;;;;;;;;;;;;;7.61;60.54;93778.56;4236553;28;5635;-67
2023/01/17 12:19:27;;;;;;;;;;;;;;;7.58;60.02;93777.19;4236213;27;5667;-66
2023/01/17 12:21:41;;;;;;;;;;;;;;;7.56;60.35;93769.56;4230400;28;5627;-67
2023/01/17 12:24:16;;;;;;;;;;;;;;;7.59;60.28;93761.19;4231897;28;5590;-67
2023/01/17 12:26:32;;;;;;;;;;;;;;;7.61;60.36;93758.31;4228137;28;5699;-67
2023/01/17 12:28:58;;;;;;;;;;;;;;;7.58;60.38;93762.22;4234645;28;5889;-67
2023/01/17 12:31:13;;;;;;;;;;;;;;;7.58;60.18;93767.47;4224531;28;5808;-67
2023/01/17 12:33:21;;;;;;;;;;;;;;;7.55;60.12;93759.28;4219342;28;5802;-67
2023/01/17 12:35:37;;;;;;;;;;;;;;;7.54;60.46;93755.06;4229344;28;5746;-67
2023/01/17 12:37:44;;;;;;;;;;;;;;;7.57;60.42;93765.09;4231155;28;5766;-67
2023/01/17 12:39:56;;;;;;;;;;;;;;;7.56;60.13;93753.78;4236204;28;5112;-67
2023/01/17 12:42:05;;;;;;;;;;;;;;;7.58;60.16;93743.00;4235456;28;5613;-67
2023/01/17 12:44:14;;;;;;;;;;;;;;;7.59;60.35;93744.63;4225159;27;5613;-69
2023/01/17 12:46:22;;;;;;;;;;;;;;;7.54;60.21;93750.63;4227564;28;5644;-69
2023/01/17 12:48:32;;;;;;;;;;;;;;;7.50;60.24;93757.41;4234951;28;5605;-69
2023/01/17 12:50:42;;;;;;;;;;;;;;;7.50;60.30;93760.03;4236081;28;5869;-69
2023/01/17 12:52:52;;;;;;;;;;;;;;;7.47;60.39;93757.88;4234242;28;5728;-69
2023/01/17 12:55:02;;;;;;;;;;;;;;;7.44;60.21;93744.47;4231315;28;5681;-69
2023/01/17 12:57:12;;;;;;;;;;;;;;;7.43;60.40;93762.06;4234107;28;5743;-70
2023/01/17 12:59:21;;;;;;;;;;;;;;;7.44;60.33;93761.03;4219038;28;5609;-70
2023/01/17 13:01:29;;;;;;;;;;;;;;;7.44;60.35;93763.66;4224253;28;6561;-70
2023/01/17 13:03:46;;;;;;;;;;;;;;;7.43;60.11;93762.06;4235910;28;5586;-69
2023/01/17 13:05:51;;;;;;;;;;;;;;;7.42;60.15;93768.38;4236008;28;5095;-70
2023/01/17 13:08:01;;;;;;;;;;;;;;;7.43;59.93;93764.69;4227805;28;5670;-69
2023/01/17 13:10:17;;;;;;;;;;;;;;;7.45;60.01;93769.69;4225243;28;5601;-68
2023/01/17 13:12:22;;;;;;;;;;;;;;;7.45;60.01;93780.22;4231106;28;5792;-69
2023/01/17 13:14:26;;;;;;;;;;;;;;;7.48;60.10;93785.78;4233950;28;5651;-69
2023/01/17 13:16:33;;;;;;;;;;;;;;;7.47;59.83;93788.63;4227274;28;5606;-69
2023/01/17 13:18:45;;;;;;;;;;;;;;;7.46;59.81;93787.84;4234184;28;5739;-68
2023/01/17 13:21:03;;;;;;;;;;;;;;;7.47;59.88;93783.38;4219155;28;5085;-68
2023/01/17 13:23:15;;;;;;;;;;;;;;;7.47;59.88;93776.28;4228111;28;5601;-68
2023/01/17 13:25:36;;;;;;;;;;;;;;;7.49;59.95;93779.50;4220034;28;6111;-69
2023/01/17 13:28:01;;;;;;;;;;;;;;;7.49;59.86;93771.59;4234609;28;5620;-69
2023/01/17 13:30:23;;;;;;;;;;;;;;;7.50;59.88;93801.31;4234382;28;5606;-69
2023/01/17 13:32:51;;;;;;;;;;;;;;;7.44;59.61;93816.22;4201969;28;5628;-69
2023/01/17 13:35:13;;;;;;;;;;;;;;;7.36;59.82;93821.09;4232019;28;5674;-69
2023/01/17 13:37:43;;;;;;;;;;;;;;;7.30;59.65;93821.06;4225542;28;6267;-69
2023/01/17 13:40:05;;;;;;;;;;;;;;;7.28;59.86;93822.34;4235666;28;5672;-69
2023/01/17 13:42:12;;;;;;;;;;;;;;;7.29;59.82;93829.97;4227985;27;5640;-69
2023/01/17 13:44:21;;;;;;;;;;;;;;;7.32;59.71;93828.69;4224293;28;5620;-69
2023/01/17 13:46:24;;;;;;;;;;;;;;;7.30;59.52;93825.53;4225378;28;5614;-69
2023/01/17 13:48:32;;;;;;;;;;;;;;;7.33;59.81;93824.22;4227496;28;5728;-69
2023/01/17 13:50:51;;;;;;;;;;;;;;;7.28;59.76;93823.13;4234322;28;5784;-69
2023/01/17 13:52:56;;;;;;;;;;;;;;;7.20;59.88;93820.13;4230005;28;5751;-69
2023/01/17 13:55:01;;;;;;;;;;;;;;;7.12;59.87;93825.81;4228257;28;6366;-69
2023/01/17 13:57:38;;;;;;;;;;;;;;;7.16;60.02;93813.78;4227659;28;5697;-69
2023/01/17 13:59:41;;;;;;;;;;;;;;;7.18;59.81;93803.84;4223096;28;5644;-69
2023/01/17 14:02:02;;;;;;;;;;;;;;;7.17;59.97;93807.50;4233959;28;5585;-69
2023/01/17 14:04:07;;;;;;;;;;;;;;;7.22;59.91;93799.66;4230514;28;5913;-70
2023/01/17 14:06:29;;;;;;;;;;;;;;;7.22;59.84;93791.78;4233610;28;5655;-70
2023/01/17 14:08:37;;;;;;;;;;;;;;;7.30;59.64;93794.00;4228267;28;5606;-69
2023/01/17 14:10:43;;;;;;;;;;;;;;;7.38;60.06;93779.63;4231978;28;5711;-69
2023/01/17 14:12:46;;;;;;;;;;;;;;;7.42;59.59;93789.38;4229465;28;5734;-67
2023/01/17 14:14:54;;;;;;;;;;;;;;;7.45;59.88;93798.63;4226105;28;5680;-68
2023/01/17 14:17:26;;;;;;;;;;;;;;;7.48;59.86;93801.56;4218368;28;5812;-69
2023/01/17 14:19:29;;;;;;;;;;;;;;;7.54;59.75;93810.28;4219678;28;5735;-68
2023/01/17 14:21:34;;;;;;;;;;;;;;;7.58;59.78;93804.28;4233309;28;5598;-69
2023/01/17 14:23:56;;;;;;;;;;;;;;;7.62;59.59;93806.44;4234475;28;5738;-69
2023/01/17 14:26:12;;;;;;;;;;;;;;;7.63;59.75;93814.06;4227471;27;5686;-68
2023/01/17 14:28:22;;;;;;;;;;;;;;;7.62;59.73;93822.19;4223658;28;5855;-69
2023/01/17 14:30:27;;;;;;;;;;;;;;;7.63;59.52;93818.53;4232320;28;5659;-69
2023/01/17 14:32:32;;;;;;;;;;;;;;;7.65;59.61;93825.13;4234627;28;5672;-69
2023/01/17 14:34:36;;;;;;;;;;;;;;;7.69;59.85;93822.78;4231172;28;5850;-67
2023/01/17 14:36:39;;;;;;;;;;;;;;;7.70;59.67;93819.13;4232294;28;5655;-69
2023/01/17 14:38:45;;;;;;;;;;;;;;;7.76;59.85;93823.41;4228155;28;5832;-70
2023/01/17 14:40:53;;;;;;;;;;;;;;;7.79;59.61;93813.16;4234175;28;5578;-68
2023/01/17 14:43:01;;;;;;;;;;;;;;;7.80;59.39;93809.50;4232001;27;5826;-69
2023/01/17 14:45:11;;;;;;;;;;;;;;;7.82;59.77;93802.16;4231930;28;5701;-70
2023/01/17 14:47:15;;;;;;;;;;;;;;;7.82;59.59;93798.75;4229258;28;5815;-68
2023/01/17 14:49:22;;;;;;;;;;;;;;;7.79;59.50;93794.75;4223500;28;5625;-69
2023/01/17 14:51:25;;;;;;;;;;;;;;;7.80;59.82;93792.91;4231188;28;5626;-69
2023/01/17 14:53:32;;;;;;;;;;;;;;;7.83;59.69;93795.06;4233283;28;5640;-69
2023/01/17 14:55:35;;;;;;;;;;;;;;;7.80;59.59;93798.97;4233036;28;5863;-70
2023/01/17 14:57:40;;;;;;;;;;;;;;;7.75;59.44;93792.88;4233478;28;5590;-68
2023/01/17 14:59:47;;;;;;;;;;;;;;;7.76;59.72;93797.88;4222008;28;5741;-69
2023/01/17 15:01:55;;;;;;;;;;;;;;;7.77;59.92;93793.44;4231455;28;5776;-69
2023/01/17 15:04:26;;;;;;;;;;;;;;;7.78;59.84;93805.53;4233936;28;5599;-69
2023/01/17 15:06:37;;;;;;;;;;;;;;;7.77;59.74;93809.19;4230594;28;5586;-68
2023/01/17 15:08:40;;;;;;;;;;;;;;;7.74;59.56;93809.72;4233893;28;5594;-69
2023/01/17 15:10:50;;;;;;;;;;;;;;;7.70;59.82;93819.94;4220896;28;5647;-68
2023/01/17 15:12:56;;;;;;;;;;;;;;;7.72;59.83;93822.31;4231013;28;5605;-67
2023/01/17 15:15:01;;;;;;;;;;;;;;;7.76;59.96;93826.03;4231078;28;5742;-69
2023/01/17 15:17:11;;;;;;;;;;;;;;;7.75;59.85;93825.22;4223836;28;5586;-70
2023/01/17 15:19:18;;;;;;;;;;;;;;;7.77;59.70;93825.78;4235319;28;5594;-70
2023/01/17 15:21:25;;;;;;;;;;;;;;;7.78;59.67;93823.94;4235224;28;5774;-69
2023/01/17 15:23:33;;;;;;;;;;;;;;;7.76;59.58;93833.91;4223053;28;5788;-70
2023/01/17 15:25:37;;;;;;;;;;;;;;;7.75;59.81;93834.97;4228860;28;5614;-69
2023/01/17 15:27:49;;;;;;;;;;;;;;;7.70;59.93;93834.88;4228248;28;5704;-68
2023/01/17 15:29:57;;;;;;;;;;;;;;;7.68;59.77;93831.72;4233547;28;5684;-69
2023/01/17 15:32:02;;;;;;;;;;;;;;;7.67;60.01;93845.91;4225374;28;5617;-69
2023/01/17 15:34:06;;;;;;;;;;;;;;;7.65;59.96;93853.25;4231047;28;5128;-69
2023/01/17 15:36:23;;;;;;;;;;;;;;;7.62;59.84;93864.28;4230725;28;6337;-69
2023/01/17 15:38:26;;;;;;;;;;;;;;;7.55;60.04;93865.25;4228852;28;5821;-70
2023/01/17 15:40:36;;;;;;;;;;;;;;;7.49;60.17;93860.19;4227505;28;5590;-70
2023/01/17 15:42:42;;;;;;;;;;;;;;;7.49;60.37;93863.59;4221070;28;5889;-69
2023/01/17 15:44:46;;;;;;;;;;;;;;;7.50;60.24;93865.19;4224324;28;5744;-69
2023/01/17 15:46:53;;;;;;;;;;;;;;;7.51;60.25;93861.53;4231163;28;5788;-70
2023/01/17 15:49:11;;;;;;;;;;;;;;;7.54;60.34;93858.41;4226983;28;5672;-70
2023/01/17 15:51:30;;;;;;;;;;;;;;;7.49;60.18;93853.09;4230025;28;5595;-70
2023/01/17 15:53:36;;;;;;;;;;;;;;;7.42;60.08;93855.09;4225819;28;5817;-72
2023/01/17 15:55:41;;;;;;;;;;;;;;;7.40;60.42;93848.50;4227257;28;5589;-68
2023/01/17 15:57:46;;;;;;;;;;;;;;;7.37;60.33;93851.63;4226136;27;5657;-69
2023/01/17 15:59:58;;;;;;;;;;;;;;;7.31;60.53;93850.75;4227552;28;5685;-68
2023/01/17 16:02:02;;;;;;;;;;;;;;;7.29;60.37;93853.63;4225586;28;5636;-69
2023/01/17 16:04:29;;;;;;;;;;;;;;;7.25;60.43;93843.88;4224467;28;5860;-70
2023/01/17 16:06:44;;;;;;;;;;;;;;;7.24;60.72;93845.66;4219676;28;5675;-68
2023/01/17 16:08:52;;;;;;;;;;;;;;;7.26;60.70;93848.88;4225559;28;6445;-69
2023/01/17 16:11:00;;;;;;;;;;;;;;;7.24;60.32;93852.75;4229703;28;5602;-69
2023/01/17 16:13:04;;;;;;;;;;;;;;;7.22;60.64;93847.75;4225100;28;5616;-69
2023/01/17 16:15:08;;;;;;;;;;;;;;;7.29;60.61;93853.63;4226569;28;5881;-69
2023/01/17 16:17:18;;;;;;;;;;;;;;;7.37;60.53;93862.94;4226729;28;5693;-69
2023/01/17 16:19:25;;;;;;;;;;;;;;;7.39;60.26;93858.22;4226705;28;5608;-68
2023/01/17 16:21:30;;;;;;;;;;;;;;;7.46;60.21;93858.03;4226046;28;5759;-69
2023/01/17 16:23:33;;;;;;;;;;;;;;;7.50;60.33;93862.56;4228965;28;5697;-69
2023/01/17 16:25:37;;;;;;;;;;;;;;;7.55;60.33;93869.69;4224051;28;5856;-69
2023/01/17 16:27:41;;;;;;;;;;;;;;;7.56;60.13;93874.72;4231037;28;5701;-69
2023/01/17 16:29:44;;;;;;;;;;;;;;;7.58;60.50;93870.00;4230168;28;5692;-68
2023/01/17 16:31:48;;;;;;;;;;;;;;;7.62;60.13;93872.16;4213291;28;5808;-68
2023/01/17 16:33:52;;;;;;;;;;;;;;;7.62;60.46;93882.69;4227926;28;5817;-68
2023/01/17 16:35:55;;;;;;;;;;;;;;;7.63;60.35;93873.75;4202630;28;5604;-69
2023/01/17 16:37:59;;;;;;;;;;;;;;;7.65;60.51;93869.03;4230363;28;5795;-69
2023/01/17 16:40:02;;;;;;;;;;;;;;;7.69;60.26;93878.00;4229022;28;5665;-68
2023/01/17 16:42:05;;;;;;;;;;;;;;;7.72;60.55;93874.91;4233180;27;5746;-68
2023/01/17 16:44:14;;;;;;;;;;;;;;;7.75;60.03;93867.31;4234206;28;5639;-70
2023/01/17 16:46:20;;;;;;;;;;;;;;;7.72;59.99;93859.13;4234249;28;5594;-69
2023/01/17 16:48:23;;;;;;;;;;;;;;;7.70;60.10;93861.19;4234541;28;5912;-69
2023/01/17 16:50:47;;;;;;;;;;;;;;;7.71;60.34;93865.44;4234283;28;5743;-69
2023/01/17 16:52:55;;;;;;;;;;;;;;;7.70;60.22;93851.50;4216144;28;5735;-67
2023/01/17 16:54:57;;;;;;;;;;;;;;;7.65;60.25;93853.25;4227863;28;5768;-69
2023/01/17 16:57:00;;;;;;;;;;;;;;;7.63;60.51;93861.38;4223690;28;5689;-69
2023/01/17 16:59:03;;;;;;;;;;;;;;;7.61;60.44;93854.78;4234192;28;5730;-69
2023/01/17 17:01:09;;;;;;;;;;;;;;;7.61;60.67;93863.47;4234473;28;5964;-69
2023/01/17 17:03:15;;;;;;;;;;;;;;;7.62;60.55;93856.38;4234267;28;5750;-68
2023/01/17 17:05:19;;;;;;;;;;;;;;;7.65;60.48;93853.25;4225997;28;5709;-69
2023/01/17 17:07:23;;;;;;;;;;;;;;;7.67;60.45;93846.69;4234400;28;5746;-69
2023/01/17 17:09:25;;;;;;;;;;;;;;;7.69;60.45;93849.06;4234322;28;5750;-69
2023/01/17 17:11:28;;;;;;;;;;;;;;;7.67;60.40;93857.22;4234417;28;5667;-69
2023/01/17 17:13:34;;;;;;;;;;;;;;;7.63;60.60;93857.97;4233728;28;5791;-69
2023/01/17 17:15:40;;;;;;;;;;;;;;;7.59;60.56;93855.84;4234446;27;5614;-69
2023/01/17 17:17:43;;;;;;;;;;;;;;;7.57;60.67;93860.53;4234156;28;6413;-69
2023/01/17 17:19:47;;;;;;;;;;;;;;;7.61;60.50;93857.44;4234058;28;5834;-69
2023/01/17 17:21:50;;;;;;;;;;;;;;;7.61;60.48;93858.22;4233541;28;5750;-68
2023/01/17 17:23:56;;;;;;;;;;;;;;;7.62;60.63;93859.00;4233646;28;5785;-69
2023/01/17 17:25:59;;;;;;;;;;;;;;;7.59;60.80;93866.34;4234041;28;5750;-69
2023/01/17 17:28:02;;;;;;;;;;;;;;;7.62;60.80;93866.91;4233646;28;5715;-69
2023/01/17 17:30:06;;;;;;;;;;;;;;;7.63;60.82;93865.84;4233675;28;5762;-69
2023/01/17 17:32:10;;;;;;;;;;;;;;;7.65;60.69;93880.34;4233656;28;5747;-69
2023/01/17 17:34:14;;;;;;;;;;;;;;;7.66;60.59;93887.19;4215751;27;6281;-69
2023/01/17 17:36:17;;;;;;;;;;;;;;;7.68;60.90;93895.63;4222826;28;5622;-69
2023/01/17 17:38:20;;;;;;;;;;;;;;;7.65;60.90;93890.84;4228972;28;5700;-69
2023/01/17 17:40:24;;;;;;;;;;;;;;;7.61;61.09;93900.28;4227738;28;5658;-68
2023/01/17 17:42:27;;;;;;;;;;;;;;;7.60;60.68;93898.69;4228749;28;5589;-69
2023/01/17 17:44:30;;;;;;;;;;;;;;;7.62;60.63;93906.34;4225126;28;5616;-68
2023/01/17 17:46:35;;;;;;;;;;;;;;;7.64;60.88;93904.25;4226356;28;5612;-69
2023/01/17 17:48:41;;;;;;;;;;;;;;;7.66;60.99;93913.47;4224942;28;5605;-68
2023/01/17 17:50:44;;;;;;;;;;;;;;;7.69;60.95;93922.69;4221309;28;5739;-68
2023/01/17 17:52:48;;;;;;;;;;;;;;;7.71;60.87;93921.44;4217943;28;5798;-68
2023/01/17 17:54:51;;;;;;;;;;;;;;;7.74;60.80;93918.31;4224560;28;5849;-69
2023/01/17 17:56:55;;;;;;;;;;;;;;;7.79;60.64;93928.09;4227142;28;5595;-69
2023/01/17 17:58:58;;;;;;;;;;;;;;;7.79;60.65;93925.47;4222351;28;5590;-69
2023/01/17 18:01:06;;;;;;;;;;;;;;;7.78;60.77;93923.88;4227548;28;5689;-69
2023/01/17 18:03:08;;;;;;;;;;;;;;;7.70;60.65;93927.75;4224883;28;5807;-69
2023/01/17 18:05:11;;;;;;;;;;;;;;;7.69;61.04;93931.38;4223562;28;5632;-69
2023/01/17 18:07:14;;;;;;;;;;;;;;;7.71;60.60;93931.97;4220579;28;6984;-69
2023/01/17 18:09:17;;;;;;;;;;;;;;;7.71;60.79;93926.69;4227224;28;5797;-69
2023/01/17 18:11:22;;;;;;;;;;;;;;;7.75;60.91;93948.81;4221640;28;5830;-69
2023/01/17 18:13:26;;;;;;;;;;;;;;;7.77;60.99;93944.13;4219556;28;5605;-69
2023/01/17 18:15:29;;;;;;;;;;;;;;;7.80;60.79;93946.25;4219524;28;5657;-69
2023/01/17 18:17:32;;;;;;;;;;;;;;;7.80;60.55;93942.81;4224708;27;5621;-68
2023/01/17 18:19:34;;;;;;;;;;;;;;;7.83;60.68;93950.25;4217093;28;6721;-68
2023/01/17 18:21:38;;;;;;;;;;;;;;;7.83;60.82;93944.97;4222449;28;5768;-69
2023/01/17 18:23:43;;;;;;;;;;;;;;;7.87;60.72;93951.34;4220053;28;5886;-69
2023/01/17 18:25:46;;;;;;;;;;;;;;;7.91;60.64;93957.69;4217499;27;6889;-68
2023/01/17 18:27:49;;;;;;;;;;;;;;;7.93;60.65;93949.53;4217915;28;5589;-73
2023/01/17 18:29:53;;;;;;;;;;;;;;;7.97;60.58;93951.47;4218994;28;5693;-73
2023/01/17 18:31:56;;;;;;;;;;;;;;;7.97;60.38;93940.94;4220653;28;5578;-70
2023/01/17 18:34:04;;;;;;;;;;;;;;;7.97;60.38;93951.47;4219937;28;5841;-70